createdAt,value
2023-04-30T00:00:33.433Z,97611.10
2023-04-30T00:03:19.800Z,97611.54
2023-04-30T00:05:49.408Z,97610.66
2023-04-30T00:08:16.110Z,97612.67
2023-04-30T00:10:42.557Z,97613.97
2023-04-30T00:13:09.022Z,97610.98
2023-04-30T00:15:35.716Z,97613.89
2023-04-30T00:18:02.419Z,97613.50
2023-04-30T00:20:28.822Z,97611.25
2023-04-30T00:22:55.138Z,97615.50
2023-04-30T00:25:21.622Z,97611.04
2023-04-30T00:27:47.991Z,97617.58
2023-04-30T00:30:14.510Z,97614.21
2023-04-30T00:32:40.917Z,97617.23
2023-04-30T00:35:07.537Z,97616.77
2023-04-30T00:37:33.852Z,97620.77
2023-04-30T00:40:00.205Z,97619.34
2023-04-30T00:42:26.758Z,97623.23
2023-04-30T00:44:53.175Z,97621.83
2023-04-30T00:47:19.941Z,97627.13
2023-04-30T00:49:46.539Z,97632.22
2023-04-30T00:52:13.302Z,97625.19
2023-04-30T00:54:39.837Z,97629.39
2023-04-30T00:57:07.154Z,97626.86
2023-04-30T00:59:34.169Z,97630.04
2023-04-30T01:02:01.980Z,97630.40
2023-04-30T01:04:31.778Z,97630.20
2023-04-30T01:06:58.680Z,97631.98
2023-04-30T01:09:25.004Z,97631.81
2023-04-30T01:12:06.065Z,97633.87
2023-04-30T01:14:55.259Z,97634.92
2023-04-30T01:17:33.235Z,97635.23
2023-04-30T01:20:00.909Z,97638.25
2023-04-30T01:22:27.292Z,97643.33
2023-04-30T01:24:59.805Z,97643.86
2023-04-30T01:27:32.048Z,97648.50
2023-04-30T01:29:58.755Z,97648.95
2023-04-30T01:32:25.682Z,97651.77
2023-04-30T01:34:52.032Z,97650.61
2023-04-30T01:37:21.559Z,97653.39
2023-04-30T01:39:50.653Z,97656.20
2023-04-30T01:42:21.087Z,97658.48
2023-04-30T01:45:03.586Z,97662.32
2023-04-30T01:47:29.941Z,97663.01
2023-04-30T01:50:13.808Z,97662.69
2023-04-30T01:52:48.593Z,97665.14
2023-04-30T01:55:21.323Z,97660.33
2023-04-30T01:57:59.040Z,97661.71
2023-04-30T02:00:29.579Z,97662.09
2023-04-30T02:02:56.410Z,97662.01
2023-04-30T02:05:22.799Z,97661.05
2023-04-30T02:07:49.646Z,97663.20
2023-04-30T02:10:16.719Z,97666.86
2023-04-30T02:12:43.047Z,97667.41
2023-04-30T02:15:09.795Z,97667.81
2023-04-30T02:17:36.306Z,97669.40
2023-04-30T02:20:04.506Z,97670.53
2023-04-30T02:22:31.133Z,97673.61
2023-04-30T02:24:57.471Z,97674.40
2023-04-30T02:27:24.507Z,97672.95
2023-04-30T02:29:51.394Z,97674.77
2023-04-30T02:32:18.194Z,97677.23
2023-04-30T02:34:44.704Z,97677.83
2023-04-30T02:37:11.376Z,97682.70
2023-04-30T02:39:37.847Z,97685.25
2023-04-30T02:42:04.326Z,97688.31
2023-04-30T02:44:30.745Z,97688.13
2023-04-30T02:46:57.195Z,97693.16
2023-04-30T02:49:23.493Z,97692.61
2023-04-30T02:51:49.894Z,97688.81
2023-04-30T02:54:16.350Z,97690.48
2023-04-30T02:56:42.732Z,97693.67
2023-04-30T02:59:09.185Z,97692.23
2023-04-30T03:01:35.640Z,97696.09
2023-04-30T03:04:02.059Z,97699.31
2023-04-30T03:06:28.774Z,97703.21
2023-04-30T03:08:55.082Z,97710.89
2023-04-30T03:11:21.537Z,97715.45
2023-04-30T03:13:48.234Z,97712.66
2023-04-30T03:16:14.720Z,97718.64
2023-04-30T03:18:41.052Z,97722.56
2023-04-30T03:21:07.512Z,97731.09
2023-04-30T03:23:33.773Z,97735.82
2023-04-30T03:26:00.199Z,97735.23
2023-04-30T03:28:26.560Z,97736.77
2023-04-30T03:30:52.814Z,97744.41
2023-04-30T03:33:19.293Z,97739.38
2023-04-30T03:35:45.739Z,97739.78
2023-04-30T03:38:12.068Z,97743.33
2023-04-30T03:40:38.353Z,97743.42
2023-04-30T03:43:04.769Z,97746.04
2023-04-30T03:45:31.080Z,97748.52
2023-04-30T03:47:57.667Z,97752.71
2023-04-30T03:50:24.243Z,97754.08
2023-04-30T03:52:50.640Z,97756.31
2023-04-30T03:55:17.056Z,97766.80
2023-04-30T03:57:43.475Z,97768.69
2023-04-30T04:00:10.487Z,97775.54
2023-04-30T04:02:40.144Z,97780.23
2023-04-30T04:05:08.270Z,97786.07
2023-04-30T04:07:34.802Z,97790.94
2023-04-30T04:10:01.112Z,97794.21
2023-04-30T04:12:28.248Z,97797.02
2023-04-30T04:14:55.404Z,97806.98
2023-04-30T04:17:22.324Z,97811.30
2023-04-30T04:19:48.689Z,97815.00
2023-04-30T04:22:15.984Z,97818.89
2023-04-30T04:24:42.866Z,97821.74
2023-04-30T04:27:09.631Z,97825.30
2023-04-30T04:29:36.312Z,97828.80
2023-04-30T04:32:03.166Z,97833.76
2023-04-30T04:34:30.020Z,97833.35
2023-04-30T04:36:56.636Z,97833.51
2023-04-30T04:39:22.945Z,97841.77
2023-04-30T04:41:49.338Z,97849.28
2023-04-30T04:44:15.650Z,97850.20
2023-04-30T04:46:42.739Z,97856.45
2023-04-30T04:49:09.250Z,97859.54
2023-04-30T04:51:35.726Z,97863.02
2023-04-30T04:54:02.459Z,97866.95
2023-04-30T04:56:28.786Z,97869.23
2023-04-30T04:58:58.308Z,97874.46
2023-04-30T05:01:30.293Z,97878.13
2023-04-30T05:03:56.860Z,97886.46
2023-04-30T05:06:23.416Z,97888.55
2023-04-30T05:08:49.880Z,97890.95
2023-04-30T05:11:16.961Z,97896.65
2023-04-30T05:13:43.690Z,97899.44
2023-04-30T05:16:10.139Z,97902.11
2023-04-30T05:18:36.645Z,97906.41
2023-04-30T05:21:03.181Z,97907.98
2023-04-30T05:23:29.536Z,97913.02
2023-04-30T05:25:55.998Z,97917.60
2023-04-30T05:28:22.302Z,97922.45
2023-04-30T05:30:48.766Z,97923.10
2023-04-30T05:33:15.238Z,97929.72
2023-04-30T05:35:41.626Z,97932.61
2023-04-30T05:38:07.961Z,97930.48
2023-04-30T05:40:34.313Z,97935.70
2023-04-30T05:43:00.714Z,97941.52
2023-04-30T05:45:27.043Z,97945.13
2023-04-30T05:47:53.471Z,97947.45
2023-04-30T05:50:19.951Z,97952.30
2023-04-30T05:52:46.310Z,97950.65
2023-04-30T05:55:12.583Z,97957.42
2023-04-30T05:57:39.027Z,97961.88
2023-04-30T06:00:06.478Z,97964.02
2023-04-30T06:02:38.826Z,97963.51
2023-04-30T06:05:06.923Z,97968.00
2023-04-30T06:07:33.412Z,97971.64
2023-04-30T06:09:59.846Z,97971.32
2023-04-30T06:12:26.211Z,97969.05
2023-04-30T06:14:52.762Z,97970.25
2023-04-30T06:17:19.402Z,97970.00
2023-04-30T06:19:45.805Z,97971.41
2023-04-30T06:22:12.121Z,97974.77
2023-04-30T06:24:38.626Z,97972.15
2023-04-30T06:27:04.876Z,97975.73
2023-04-30T06:29:31.189Z,97977.11
2023-04-30T06:31:57.497Z,97981.05
2023-04-30T06:34:25.398Z,97982.46
2023-04-30T06:36:51.770Z,97985.54
2023-04-30T06:39:18.160Z,97987.92
2023-04-30T06:41:44.669Z,97987.23
2023-04-30T06:44:11.002Z,97990.52
2023-04-30T06:46:37.464Z,97988.56
2023-04-30T06:49:03.849Z,97993.05
2023-04-30T06:51:30.142Z,97990.53
2023-04-30T06:53:56.461Z,97987.98
2023-04-30T06:56:22.827Z,97990.06
2023-04-30T06:58:49.464Z,97990.98
2023-04-30T07:01:15.846Z,97993.95
2023-04-30T07:03:42.588Z,97993.08
2023-04-30T07:06:09.180Z,97993.52
2023-04-30T07:08:35.674Z,97999.00
2023-04-30T07:11:02.010Z,97996.04
2023-04-30T07:13:28.391Z,97998.51
2023-04-30T07:15:54.896Z,97997.81
2023-04-30T07:18:21.447Z,98002.34
2023-04-30T07:20:47.739Z,98001.44
2023-04-30T07:23:14.290Z,98003.02
2023-04-30T07:25:40.577Z,98005.88
2023-04-30T07:28:06.888Z,98007.13
2023-04-30T07:30:33.435Z,98014.03
2023-04-30T07:32:59.957Z,98016.63
2023-04-30T07:35:26.431Z,98013.06
2023-04-30T07:37:53.266Z,98011.36
2023-04-30T07:40:32.669Z,98014.95
2023-04-30T07:43:02.569Z,98014.13
2023-04-30T07:45:28.874Z,98011.41
2023-04-30T07:47:55.364Z,98011.33
2023-04-30T07:50:21.940Z,98015.20
2023-04-30T07:52:48.764Z,98021.89
2023-04-30T07:55:15.206Z,98027.71
2023-04-30T07:57:41.888Z,98026.94
2023-04-30T08:00:08.368Z,98031.27
2023-04-30T08:02:39.169Z,98028.47
2023-04-30T08:05:05.909Z,98035.83
2023-04-30T08:07:32.412Z,98042.16
2023-04-30T08:09:58.838Z,98041.03
2023-04-30T08:12:25.499Z,98039.83
2023-04-30T08:14:59.501Z,98045.93
2023-04-30T08:17:26.058Z,98046.56
2023-04-30T08:19:53.303Z,98046.26
2023-04-30T08:22:20.146Z,98043.91
2023-04-30T08:24:46.558Z,98043.79
2023-04-30T08:27:13.024Z,98043.26
2023-04-30T08:29:39.475Z,98052.02
2023-04-30T08:32:06.096Z,98057.42
2023-04-30T08:34:33.404Z,98052.73
2023-04-30T08:37:00.952Z,98052.80
2023-04-30T08:39:27.582Z,98054.19
2023-04-30T08:41:56.908Z,98055.98
2023-04-30T08:44:23.984Z,98055.98
2023-04-30T08:46:52.886Z,98057.55
2023-04-30T08:49:19.792Z,98063.63
2023-04-30T08:51:46.593Z,98059.27
2023-04-30T08:54:13.131Z,98062.70
2023-04-30T08:56:42.788Z,98055.02
2023-04-30T08:59:09.129Z,98056.14
2023-04-30T09:01:35.606Z,98065.91
2023-04-30T09:04:06.139Z,98061.55
2023-04-30T09:06:32.806Z,98057.58
2023-04-30T09:09:10.390Z,98054.84
2023-04-30T09:11:37.547Z,98058.33
2023-04-30T09:14:04.030Z,98062.66
2023-04-30T09:16:44.376Z,98065.55
2023-04-30T09:19:40.359Z,98064.81
2023-04-30T09:22:19.839Z,98059.61
2023-04-30T09:24:46.839Z,98069.67
2023-04-30T09:27:17.253Z,98072.92
2023-04-30T09:29:43.899Z,98063.58
2023-04-30T09:32:10.483Z,98066.06
2023-04-30T09:34:36.871Z,98072.85
2023-04-30T09:37:03.209Z,98075.91
2023-04-30T09:39:29.676Z,98081.27
2023-04-30T09:42:11.413Z,98077.30
2023-04-30T09:44:38.828Z,98078.55
2023-04-30T09:47:10.235Z,98075.27
2023-04-30T09:49:41.027Z,98073.11
2023-04-30T09:52:07.915Z,98070.20
2023-04-30T09:54:34.869Z,98065.32
2023-04-30T09:57:02.427Z,98067.50
2023-04-30T09:59:29.991Z,98068.53
2023-04-30T10:02:00.706Z,98071.25
2023-04-30T10:04:32.554Z,98069.45
2023-04-30T10:07:00.067Z,98059.89
2023-04-30T10:09:28.929Z,98063.15
2023-04-30T10:11:56.834Z,98062.66
2023-04-30T10:14:25.091Z,98061.25
2023-04-30T10:16:58.383Z,98063.38
2023-04-30T10:19:25.635Z,98054.77
2023-04-30T10:21:51.975Z,98057.30
2023-04-30T10:24:19.253Z,98049.97
2023-04-30T10:26:46.794Z,98054.56
2023-04-30T10:29:13.926Z,98056.53
2023-04-30T10:31:41.044Z,98056.30
2023-04-30T10:34:10.767Z,98049.63
2023-04-30T10:36:42.524Z,98051.06
2023-04-30T10:39:08.994Z,98052.16
2023-04-30T10:41:35.596Z,98051.61
2023-04-30T10:44:02.382Z,98054.53
2023-04-30T10:46:28.878Z,98047.70
2023-04-30T10:48:55.372Z,98047.24
2023-04-30T10:51:22.417Z,98050.73
2023-04-30T10:53:50.136Z,98053.34
2023-04-30T10:56:29.157Z,98049.84
2023-04-30T10:58:58.026Z,98051.71
2023-04-30T11:01:24.352Z,98046.61
2023-04-30T11:04:10.390Z,98038.05
2023-04-30T11:06:59.704Z,98043.39
2023-04-30T11:09:35.679Z,98039.80
2023-04-30T11:12:03.014Z,98036.48
2023-04-30T11:14:31.515Z,98042.16
2023-04-30T11:16:58.804Z,98041.54
2023-04-30T11:19:26.742Z,98045.08
2023-04-30T11:22:08.250Z,98039.34
2023-04-30T11:24:53.562Z,98044.31
2023-04-30T11:27:20.965Z,98043.19
2023-04-30T11:29:48.291Z,98043.42
2023-04-30T11:32:15.490Z,98038.73
2023-04-30T11:34:42.765Z,98039.09
2023-04-30T11:37:11.295Z,98045.73
2023-04-30T11:39:38.834Z,98041.54
2023-04-30T11:42:06.311Z,98043.01
2023-04-30T11:44:32.814Z,98050.34
2023-04-30T11:47:00.202Z,98050.77
2023-04-30T11:49:26.854Z,98050.09
2023-04-30T11:51:53.279Z,98043.52
2023-04-30T11:54:19.646Z,98040.75
2023-04-30T11:56:46.794Z,98040.46
2023-04-30T11:59:13.569Z,98048.59
2023-04-30T12:01:40.128Z,98044.94
2023-04-30T12:04:06.946Z,98051.78
2023-04-30T12:06:34.262Z,98047.42
2023-04-30T12:09:01.235Z,98044.02
2023-04-30T12:11:28.928Z,98036.08
2023-04-30T12:14:01.552Z,98042.55
2023-04-30T12:16:28.334Z,98043.13
2023-04-30T12:18:57.560Z,98047.02
2023-04-30T12:21:24.031Z,98046.05
2023-04-30T12:23:50.366Z,98040.73
2023-04-30T12:26:16.722Z,98044.70
2023-04-30T12:28:43.252Z,98043.52
2023-04-30T12:31:09.589Z,98038.41
2023-04-30T12:33:36.170Z,98031.30
2023-04-30T12:36:09.181Z,98030.98
2023-04-30T12:38:35.516Z,98032.09
2023-04-30T12:41:04.448Z,98035.44
2023-04-30T12:43:30.916Z,98037.29
2023-04-30T12:45:57.388Z,98032.86
2023-04-30T12:48:24.810Z,98028.86
2023-04-30T12:51:01.055Z,98028.11
2023-04-30T12:53:30.370Z,98029.39
2023-04-30T12:56:08.010Z,98027.31
2023-04-30T12:58:34.357Z,98031.23
2023-04-30T13:01:00.786Z,98035.38
2023-04-30T13:03:27.296Z,98030.02
2023-04-30T13:05:53.775Z,98024.59
2023-04-30T13:08:20.333Z,98025.60
2023-04-30T13:10:47.429Z,98027.18
2023-04-30T13:13:15.039Z,98026.20
2023-04-30T13:15:42.379Z,98024.16
2023-04-30T13:18:08.794Z,98015.23
2023-04-30T13:20:39.826Z,98016.09
2023-04-30T13:23:06.605Z,98012.20
2023-04-30T13:25:34.421Z,98008.65
2023-04-30T13:28:01.066Z,98018.14
2023-04-30T13:30:27.653Z,98018.13
2023-04-30T13:32:54.047Z,98023.75
2023-04-30T13:35:20.553Z,98024.39
2023-04-30T13:37:47.007Z,98021.29
2023-04-30T13:40:13.383Z,98019.26
2023-04-30T13:42:40.949Z,98020.06
2023-04-30T13:45:07.860Z,98023.98
2023-04-30T13:47:34.534Z,98028.59
2023-04-30T13:50:01.357Z,98031.09
2023-04-30T13:52:27.711Z,98031.52
2023-04-30T13:54:54.101Z,98026.66
2023-04-30T13:57:20.489Z,98025.27
2023-04-30T13:59:46.920Z,98026.14
2023-04-30T14:02:13.464Z,98029.94
2023-04-30T14:04:40.232Z,98031.07
2023-04-30T14:07:06.639Z,98026.25
2023-04-30T14:09:33.212Z,98030.02
2023-04-30T14:11:59.595Z,98032.06
2023-04-30T14:14:25.940Z,98040.42
2023-04-30T14:16:52.251Z,98041.35
2023-04-30T14:19:19.217Z,98035.33
2023-04-30T14:21:45.569Z,98029.71
2023-04-30T14:24:11.947Z,98030.32
2023-04-30T14:26:38.649Z,98030.39
2023-04-30T14:29:04.955Z,98032.35
2023-04-30T14:31:31.303Z,98035.48
2023-04-30T14:33:57.663Z,98038.02
2023-04-30T14:36:24.268Z,98035.29
2023-04-30T14:38:50.572Z,98033.23
2023-04-30T14:41:17.129Z,98035.08
2023-04-30T14:43:43.833Z,98028.43
2023-04-30T14:46:10.270Z,98032.47
2023-04-30T14:48:37.020Z,98038.75
2023-04-30T14:51:03.559Z,98043.46
2023-04-30T14:53:30.089Z,98043.31
2023-04-30T14:55:56.663Z,98044.73
2023-04-30T14:58:23.165Z,98042.76
2023-04-30T15:00:49.658Z,98040.22
2023-04-30T15:03:16.187Z,98044.98
2023-04-30T15:05:42.665Z,98044.60
2023-04-30T15:08:09.116Z,98043.23
2023-04-30T15:10:35.707Z,98045.84
2023-04-30T15:13:02.612Z,98051.06
2023-04-30T15:15:29.205Z,98050.50
2023-04-30T15:18:00.244Z,98044.55
2023-04-30T15:20:27.133Z,98047.65
2023-04-30T15:22:53.471Z,98048.05
2023-04-30T15:25:22.663Z,98046.48
2023-04-30T15:27:49.763Z,98050.25
2023-04-30T15:30:16.120Z,98048.36
2023-04-30T15:32:42.603Z,98048.36
2023-04-30T15:35:10.036Z,98047.83
2023-04-30T15:37:36.489Z,98049.12
2023-04-30T15:40:05.579Z,98047.48
2023-04-30T15:42:32.399Z,98043.18
2023-04-30T15:44:59.033Z,98043.20
2023-04-30T15:47:25.624Z,98046.23
2023-04-30T15:49:52.059Z,98046.88
2023-04-30T15:52:18.492Z,98047.05
2023-04-30T15:54:44.864Z,98053.84
2023-04-30T15:57:11.231Z,98050.50
2023-04-30T15:59:46.374Z,98055.21
2023-04-30T16:02:12.858Z,98053.39
2023-04-30T16:04:39.201Z,98052.45
2023-04-30T16:07:05.608Z,98052.37
2023-04-30T16:09:32.138Z,98050.23
2023-04-30T16:11:58.516Z,98049.11
2023-04-30T16:14:24.870Z,98046.95
2023-04-30T16:16:51.304Z,98045.29
2023-04-30T16:19:17.901Z,98048.08
2023-04-30T16:21:44.378Z,98051.32
2023-04-30T16:24:11.187Z,98047.50
2023-04-30T16:26:42.744Z,98048.10
2023-04-30T16:29:09.107Z,98048.14
2023-04-30T16:31:35.637Z,98050.02
2023-04-30T16:34:02.326Z,98051.50
2023-04-30T16:36:28.921Z,98054.14
2023-04-30T16:38:55.300Z,98054.27
2023-04-30T16:41:21.685Z,98055.48
2023-04-30T16:43:48.055Z,98055.24
2023-04-30T16:46:14.529Z,98053.95
2023-04-30T16:48:41.114Z,98054.02
2023-04-30T16:51:07.535Z,98055.98
2023-04-30T16:53:34.156Z,98053.30
2023-04-30T16:56:03.680Z,98054.80
2023-04-30T16:58:30.025Z,98056.48
2023-04-30T17:00:56.619Z,98053.21
2023-04-30T17:03:23.464Z,98056.71
2023-04-30T17:05:52.559Z,98064.45
2023-04-30T17:08:19.145Z,98067.66
2023-04-30T17:10:45.671Z,98070.59
2023-04-30T17:13:14.814Z,98074.16
2023-04-30T17:15:41.857Z,98081.54
2023-04-30T17:18:08.612Z,98085.02
2023-04-30T17:20:35.294Z,98084.67
2023-04-30T17:23:02.100Z,98088.45
2023-04-30T17:25:28.556Z,98091.60
2023-04-30T17:27:55.041Z,98096.06
2023-04-30T17:30:21.949Z,98098.63
2023-04-30T17:32:48.286Z,98100.48
2023-04-30T17:35:14.725Z,98107.20
2023-04-30T17:37:41.088Z,98110.44
2023-04-30T17:40:07.713Z,98111.38
2023-04-30T17:42:34.336Z,98114.73
2023-04-30T17:45:00.899Z,98118.23
2023-04-30T17:47:27.330Z,98119.52
2023-04-30T17:49:54.036Z,98122.70
2023-04-30T17:52:20.731Z,98124.04
2023-04-30T17:54:47.196Z,98125.70
2023-04-30T17:57:13.575Z,98133.16
2023-04-30T17:59:40.293Z,98136.39
2023-04-30T18:02:07.014Z,98138.84
2023-04-30T18:04:33.926Z,98138.90
2023-04-30T18:07:00.355Z,98141.00
2023-04-30T18:09:26.693Z,98140.94
2023-04-30T18:11:53.156Z,98142.45
2023-04-30T18:14:19.487Z,98141.35
2023-04-30T18:16:45.878Z,98145.28
2023-04-30T18:19:12.521Z,98145.29
2023-04-30T18:21:38.935Z,98147.97
2023-04-30T18:24:05.667Z,98152.15
2023-04-30T18:26:32.261Z,98152.63
2023-04-30T18:28:58.704Z,98156.59
2023-04-30T18:31:25.186Z,98158.26
2023-04-30T18:33:52.055Z,98159.36
2023-04-30T18:36:18.658Z,98164.02
2023-04-30T18:38:45.045Z,98162.95
2023-04-30T18:41:11.605Z,98169.83
2023-04-30T18:43:37.940Z,98168.10
2023-04-30T18:46:04.385Z,98169.99
2023-04-30T18:48:31.044Z,98172.11
2023-04-30T18:50:57.772Z,98168.91
2023-04-30T18:53:24.138Z,98167.80
2023-04-30T18:55:50.541Z,98172.71
2023-04-30T18:58:16.885Z,98173.54
2023-04-30T19:00:43.500Z,98173.16
2023-04-30T19:03:10.287Z,98175.06
2023-04-30T19:05:37.043Z,98176.03
2023-04-30T19:08:03.449Z,98179.04
2023-04-30T19:10:29.913Z,98181.04
2023-04-30T19:12:56.573Z,98181.55
2023-04-30T19:15:22.970Z,98181.44
2023-04-30T19:17:49.522Z,98183.55
2023-04-30T19:20:15.883Z,98184.41
2023-04-30T19:22:42.232Z,98188.90
2023-04-30T19:25:08.888Z,98191.29
2023-04-30T19:27:35.285Z,98193.05
2023-04-30T19:30:01.630Z,98193.92
2023-04-30T19:32:28.154Z,98195.73
2023-04-30T19:34:54.589Z,98196.39
2023-04-30T19:37:21.143Z,98197.27
2023-04-30T19:39:47.501Z,98202.02
2023-04-30T19:42:14.364Z,98202.83
2023-04-30T19:44:43.587Z,98209.73
2023-04-30T19:47:10.127Z,98208.89
2023-04-30T19:49:36.561Z,98206.63
2023-04-30T19:52:02.963Z,98206.35
2023-04-30T19:54:29.317Z,98205.78
2023-04-30T19:56:55.790Z,98206.98
2023-04-30T19:59:22.235Z,98208.91
2023-04-30T20:01:48.769Z,98211.00
2023-04-30T20:04:15.439Z,98210.80
2023-04-30T20:06:42.051Z,98210.40
2023-04-30T20:09:08.878Z,98212.55
2023-04-30T20:11:35.444Z,98210.67
2023-04-30T20:14:03.727Z,98212.31
2023-04-30T20:16:30.194Z,98213.20
2023-04-30T20:18:56.758Z,98209.84
2023-04-30T20:21:23.078Z,98210.66
2023-04-30T20:23:49.449Z,98213.34
2023-04-30T20:26:15.949Z,98213.38
2023-04-30T20:28:43.912Z,98216.85
2023-04-30T20:31:10.708Z,98215.00
2023-04-30T20:33:37.195Z,98214.77
2023-04-30T20:36:03.798Z,98217.13
2023-04-30T20:38:30.242Z,98215.27
2023-04-30T20:40:56.920Z,98213.65
2023-04-30T20:43:23.262Z,98214.36
2023-04-30T20:45:49.608Z,98212.13
2023-04-30T20:48:16.152Z,98216.45
2023-04-30T20:50:42.498Z,98222.33
2023-04-30T20:53:10.984Z,98222.19
2023-04-30T20:55:37.762Z,98221.70
2023-04-30T20:58:04.145Z,98222.48
2023-04-30T21:00:30.645Z,98222.00
2023-04-30T21:02:57.074Z,98222.73
2023-04-30T21:05:23.435Z,98225.69
2023-04-30T21:07:49.982Z,98223.73
2023-04-30T21:10:16.458Z,98227.84
2023-04-30T21:12:53.679Z,98230.48
2023-04-30T21:15:20.154Z,98230.06
2023-04-30T21:17:46.524Z,98229.25
2023-04-30T21:20:12.996Z,98232.48
2023-04-30T21:22:40.554Z,98234.27
2023-04-30T21:25:08.406Z,98236.44
2023-04-30T21:27:35.220Z,98231.05
2023-04-30T21:30:03.495Z,98235.64
2023-04-30T21:32:29.827Z,98239.15
2023-04-30T21:34:56.218Z,98239.66
2023-04-30T21:37:22.842Z,98243.88
2023-04-30T21:39:49.175Z,98243.79
2023-04-30T21:42:15.605Z,98242.80
2023-04-30T21:44:41.965Z,98244.94
2023-04-30T21:47:08.388Z,98245.06
2023-04-30T21:49:34.767Z,98246.70
2023-04-30T21:52:01.290Z,98249.20
2023-04-30T21:54:27.631Z,98253.53
2023-04-30T21:56:53.943Z,98257.57
2023-04-30T21:59:20.416Z,98261.98
2023-04-30T22:01:46.872Z,98266.33
2023-04-30T22:04:13.376Z,98267.95
2023-04-30T22:06:39.868Z,98271.55
2023-04-30T22:09:06.216Z,98271.95
2023-04-30T22:11:32.648Z,98273.86
2023-04-30T22:13:59.037Z,98275.02
2023-04-30T22:16:25.427Z,98275.04
2023-04-30T22:18:51.999Z,98275.98
2023-04-30T22:21:18.559Z,98272.10
2023-04-30T22:23:45.088Z,98275.27
2023-04-30T22:26:12.552Z,98276.34
2023-04-30T22:28:40.697Z,98279.38
2023-04-30T22:31:07.718Z,98282.80
2023-04-30T22:33:35.000Z,98286.60
2023-04-30T22:36:06.968Z,98286.23
2023-04-30T22:38:33.452Z,98291.41
2023-04-30T22:40:59.861Z,98296.83
2023-04-30T22:43:27.020Z,98294.83
2023-04-30T22:45:53.427Z,98299.29
2023-04-30T22:48:19.823Z,98298.86
2023-04-30T22:50:46.187Z,98295.91
2023-04-30T22:53:12.692Z,98296.80
2023-04-30T22:55:39.033Z,98297.55
2023-04-30T22:58:05.304Z,98296.06
2023-04-30T23:00:31.707Z,98295.34
2023-04-30T23:02:58.102Z,98300.27
2023-04-30T23:05:24.445Z,98299.41
2023-04-30T23:07:50.757Z,98301.45
2023-04-30T23:10:17.429Z,98299.46
2023-04-30T23:12:43.850Z,98299.30
2023-04-30T23:15:10.311Z,98300.25
2023-04-30T23:17:36.791Z,98296.33
2023-04-30T23:20:03.430Z,98299.88
2023-04-30T23:22:29.787Z,98295.51
2023-04-30T23:24:56.223Z,98293.80
2023-04-30T23:27:22.753Z,98293.45
2023-04-30T23:29:49.109Z,98295.20
2023-04-30T23:32:15.642Z,98292.75
2023-04-30T23:34:41.991Z,98299.55
2023-04-30T23:37:08.479Z,98297.39
2023-04-30T23:39:34.879Z,98298.84
2023-04-30T23:42:01.515Z,98299.50
2023-04-30T23:44:29.102Z,98296.16
2023-04-30T23:46:56.923Z,98300.45
2023-04-30T23:49:23.368Z,98300.86
2023-04-30T23:51:49.976Z,98299.13
2023-04-30T23:54:16.475Z,98302.39
2023-04-30T23:56:42.899Z,98300.88
2023-04-30T23:59:09.499Z,98299.39
